createdAt,value
2022-10-19T00:00:22.056Z,7.05
2022-10-19T00:15:24.016Z,9.93
2022-10-19T00:30:26.019Z,12.45
2022-10-19T00:45:28.034Z,11.85
2022-10-19T01:00:30.277Z,10.05
2022-10-19T01:16:03.739Z,9.80
2022-10-19T01:31:29.739Z,9.60
2022-10-19T01:46:38.332Z,9.10
2022-10-19T02:01:45.357Z,9.00
2022-10-19T02:16:57.299Z,8.45
2022-10-19T02:31:59.636Z,8.27
2022-10-19T02:47:06.877Z,8.50
2022-10-19T03:02:08.888Z,8.40
2022-10-19T03:17:11.173Z,8.15
2022-10-19T03:32:13.153Z,8.60
2022-10-19T03:47:15.040Z,8.57
2022-10-19T04:02:16.975Z,8.20
2022-10-19T04:17:18.845Z,8.10
2022-10-19T04:32:20.723Z,7.78
2022-10-19T04:47:22.635Z,7.20
2022-10-19T05:02:24.675Z,7.53
2022-10-19T05:17:26.713Z,6.47
2022-10-19T05:32:28.820Z,6.50
2022-10-19T05:47:31.241Z,6.10
2022-10-19T06:02:33.315Z,5.80
2022-10-19T06:17:35.557Z,5.15
2022-10-19T06:32:37.893Z,4.55
2022-10-19T06:47:39.874Z,4.65
2022-10-19T07:02:41.878Z,4.18
2022-10-19T07:17:43.775Z,4.13
2022-10-19T07:32:47.118Z,3.90
2022-10-19T07:47:49.234Z,3.70
2022-10-19T08:03:00.034Z,3.75
2022-10-19T08:18:13.165Z,3.33
2022-10-19T08:33:15.533Z,4.05
2022-10-19T08:48:30.641Z,3.92
2022-10-19T09:03:56.314Z,3.00
2022-10-19T09:18:58.883Z,0.50
2022-10-19T09:34:05.732Z,0.70
2022-10-19T09:49:07.695Z,0.77
2022-10-19T10:04:18.041Z,0.60
2022-10-19T10:34:46.356Z,1.10
2022-10-19T10:50:06.712Z,0.68
2022-10-19T11:05:26.920Z,0.60
2022-10-19T11:20:32.612Z,0.30
2022-10-19T11:36:22.394Z,0.50
2022-10-19T11:51:46.813Z,0.60
2022-10-19T12:07:00.808Z,1.08
2022-10-19T12:22:06.521Z,0.50
2022-10-19T12:37:27.211Z,0.40
2022-10-19T12:52:41.312Z,0.70
2022-10-19T13:07:43.446Z,0.50
2022-10-19T13:22:50.713Z,0.60
2022-10-19T13:38:17.771Z,0.40
2022-10-19T13:53:44.492Z,1.00
2022-10-19T14:09:11.203Z,0.60
2022-10-19T14:24:29.015Z,1.23
2022-10-19T14:39:35.361Z,0.50
2022-10-19T14:54:42.795Z,0.50
2022-10-19T15:09:56.713Z,0.73
2022-10-19T15:25:13.583Z,2.08
2022-10-19T15:40:26.015Z,0.70
2022-10-19T15:55:27.959Z,0.70
2022-10-19T16:10:29.879Z,0.80
2022-10-19T16:25:31.797Z,0.80
2022-10-19T16:40:33.667Z,0.68
2022-10-19T16:55:35.640Z,1.08
2022-10-19T17:10:37.663Z,1.25
2022-10-19T17:25:47.366Z,1.23
2022-10-19T17:40:49.279Z,1.20
2022-10-19T17:55:52.451Z,1.30
2022-10-19T18:11:05.910Z,1.25
2022-10-19T18:26:11.457Z,1.60
2022-10-19T18:56:22.619Z,2.25
2022-10-19T19:11:35.918Z,1.65
2022-10-19T19:26:41.819Z,2.05
2022-10-19T19:41:43.719Z,2.33
2022-10-19T19:56:45.629Z,1.85
2022-10-19T20:11:47.561Z,2.28
2022-10-19T20:26:49.479Z,1.77
2022-10-19T20:41:51.361Z,3.42
2022-10-19T20:56:53.533Z,2.05
2022-10-19T21:11:55.661Z,1.70
2022-10-19T21:26:57.558Z,1.80
2022-10-19T21:41:59.478Z,1.70
2022-10-19T21:57:03.085Z,1.35
2022-10-19T22:12:05.135Z,2.00
2022-10-19T22:27:07.084Z,1.73
2022-10-19T22:42:08.999Z,2.00
2022-10-19T22:57:12.179Z,3.10
2022-10-19T23:12:14.199Z,3.33
2022-10-19T23:27:16.139Z,3.97
2022-10-19T23:42:18.089Z,4.10
2022-10-19T23:57:20.017Z,4.00
